sensor_id;sensor_type;location;lat;lon;timestamp;P1;durP1;ratioP1;P2;durP2;ratioP2
11496;SDS011;5805;51.542;7.230;2022-12-19T00:00:40;19.03;;;10.80;;
11496;SDS011;5805;51.542;7.230;2022-12-19T00:03:07;16.13;;;10.43;;
11496;SDS011;5805;51.542;7.230;2022-12-19T00:05:34;17.17;;;11.73;;
11496;SDS011;5805;51.542;7.230;2022-12-19T00:08:01;16.73;;;10.43;;
11496;SDS011;5805;51.542;7.230;2022-12-19T00:10:26;17.17;;;11.30;;
11496;SDS011;5805;51.542;7.230;2022-12-19T00:12:52;17.80;;;10.40;;
11496;SDS011;5805;51.542;7.230;2022-12-19T00:15:17;15.00;;;10.47;;
11496;SDS011;5805;51.542;7.230;2022-12-19T00:17:43;16.10;;;9.77;;
11496;SDS011;5805;51.542;7.230;2022-12-19T00:20:10;14.90;;;10.43;;
11496;SDS011;5805;51.542;7.230;2022-12-19T00:22:36;16.93;;;10.90;;
11496;SDS011;5805;51.542;7.230;2022-12-19T00:25:02;16.60;;;10.77;;
11496;SDS011;5805;51.542;7.230;2022-12-19T00:27:29;16.50;;;10.37;;
11496;SDS011;5805;51.542;7.230;2022-12-19T00:29:58;18.47;;;10.60;;
11496;SDS011;5805;51.542;7.230;2022-12-19T00:32:24;18.50;;;10.97;;
11496;SDS011;5805;51.542;7.230;2022-12-19T00:34:49;19.70;;;11.53;;
11496;SDS011;5805;51.542;7.230;2022-12-19T00:37:16;17.07;;;10.30;;
11496;SDS011;5805;51.542;7.230;2022-12-19T00:39:42;13.83;;;10.23;;
11496;SDS011;5805;51.542;7.230;2022-12-19T00:42:08;18.57;;;10.47;;
11496;SDS011;5805;51.542;7.230;2022-12-19T00:44:33;16.33;;;10.17;;
11496;SDS011;5805;51.542;7.230;2022-12-19T00:46:59;18.30;;;11.57;;
11496;SDS011;5805;51.542;7.230;2022-12-19T00:49:25;18.97;;;11.80;;
11496;SDS011;5805;51.542;7.230;2022-12-19T00:51:50;16.67;;;10.80;;
11496;SDS011;5805;51.542;7.230;2022-12-19T00:54:17;16.73;;;10.37;;
11496;SDS011;5805;51.542;7.230;2022-12-19T00:56:43;20.63;;;11.80;;
11496;SDS011;5805;51.542;7.230;2022-12-19T00:59:09;16.47;;;10.20;;
11496;SDS011;5805;51.542;7.230;2022-12-19T01:01:35;18.37;;;10.87;;
11496;SDS011;5805;51.542;7.230;2022-12-19T01:04:03;16.47;;;10.37;;
11496;SDS011;5805;51.542;7.230;2022-12-19T01:06:30;16.60;;;10.40;;
11496;SDS011;5805;51.542;7.230;2022-12-19T01:08:56;16.13;;;10.37;;
11496;SDS011;5805;51.542;7.230;2022-12-19T01:11:23;15.37;;;10.50;;
11496;SDS011;5805;51.542;7.230;2022-12-19T01:13:49;18.13;;;11.07;;
11496;SDS011;5805;51.542;7.230;2022-12-19T01:16:14;20.67;;;12.17;;
11496;SDS011;5805;51.542;7.230;2022-12-19T01:18:40;16.53;;;10.57;;
11496;SDS011;5805;51.542;7.230;2022-12-19T01:21:06;15.37;;;10.27;;
11496;SDS011;5805;51.542;7.230;2022-12-19T01:23:34;16.33;;;10.57;;
11496;SDS011;5805;51.542;7.230;2022-12-19T01:26:00;19.03;;;11.30;;
11496;SDS011;5805;51.542;7.230;2022-12-19T01:28:27;17.50;;;11.07;;
11496;SDS011;5805;51.542;7.230;2022-12-19T01:30:54;14.63;;;10.27;;
11496;SDS011;5805;51.542;7.230;2022-12-19T01:33:20;17.23;;;11.80;;
11496;SDS011;5805;51.542;7.230;2022-12-19T01:35:46;16.43;;;11.10;;
11496;SDS011;5805;51.542;7.230;2022-12-19T01:38:12;17.17;;;10.13;;
11496;SDS011;5805;51.542;7.230;2022-12-19T01:40:39;17.07;;;10.53;;
11496;SDS011;5805;51.542;7.230;2022-12-19T01:43:05;15.17;;;10.67;;
11496;SDS011;5805;51.542;7.230;2022-12-19T01:45:37;16.37;;;10.90;;
11496;SDS011;5805;51.542;7.230;2022-12-19T01:48:06;16.80;;;10.50;;
11496;SDS011;5805;51.542;7.230;2022-12-19T01:50:46;17.13;;;10.17;;
11496;SDS011;5805;51.542;7.230;2022-12-19T01:53:18;16.30;;;9.87;;
11496;SDS011;5805;51.542;7.230;2022-12-19T01:55:45;15.90;;;10.80;;
11496;SDS011;5805;51.542;7.230;2022-12-19T01:58:11;16.80;;;10.50;;
11496;SDS011;5805;51.542;7.230;2022-12-19T02:00:40;17.27;;;11.13;;
11496;SDS011;5805;51.542;7.230;2022-12-19T02:03:07;16.53;;;10.37;;
11496;SDS011;5805;51.542;7.230;2022-12-19T02:05:35;15.70;;;10.40;;
11496;SDS011;5805;51.542;7.230;2022-12-19T02:08:02;17.63;;;10.83;;
11496;SDS011;5805;51.542;7.230;2022-12-19T02:10:28;19.93;;;11.60;;
11496;SDS011;5805;51.542;7.230;2022-12-19T02:12:54;18.23;;;12.83;;
11496;SDS011;5805;51.542;7.230;2022-12-19T02:15:20;16.20;;;10.57;;
11496;SDS011;5805;51.542;7.230;2022-12-19T02:17:51;17.67;;;11.43;;
11496;SDS011;5805;51.542;7.230;2022-12-19T02:20:42;17.97;;;11.20;;
11496;SDS011;5805;51.542;7.230;2022-12-19T02:26:38;18.07;;;10.93;;
11496;SDS011;5805;51.542;7.230;2022-12-19T02:29:26;22.13;;;10.83;;
11496;SDS011;5805;51.542;7.230;2022-12-19T02:32:17;18.10;;;11.07;;
11496;SDS011;5805;51.542;7.230;2022-12-19T02:34:49;17.37;;;10.90;;
11496;SDS011;5805;51.542;7.230;2022-12-19T02:37:22;17.07;;;11.03;;
11496;SDS011;5805;51.542;7.230;2022-12-19T02:39:54;15.67;;;10.63;;
11496;SDS011;5805;51.542;7.230;2022-12-19T02:42:25;18.47;;;11.40;;
11496;SDS011;5805;51.542;7.230;2022-12-19T02:44:54;18.87;;;10.80;;
11496;SDS011;5805;51.542;7.230;2022-12-19T02:47:23;14.47;;;9.90;;
11496;SDS011;5805;51.542;7.230;2022-12-19T02:49:49;19.00;;;11.13;;
11496;SDS011;5805;51.542;7.230;2022-12-19T02:55:09;15.67;;;10.20;;
11496;SDS011;5805;51.542;7.230;2022-12-19T02:57:38;17.83;;;11.23;;
11496;SDS011;5805;51.542;7.230;2022-12-19T03:00:09;15.43;;;9.67;;
11496;SDS011;5805;51.542;7.230;2022-12-19T03:02:41;16.63;;;9.93;;
11496;SDS011;5805;51.542;7.230;2022-12-19T03:05:13;14.40;;;10.30;;
11496;SDS011;5805;51.542;7.230;2022-12-19T03:07:44;16.20;;;10.03;;
11496;SDS011;5805;51.542;7.230;2022-12-19T03:10:17;14.27;;;10.00;;
11496;SDS011;5805;51.542;7.230;2022-12-19T03:12:52;15.80;;;9.53;;
11496;SDS011;5805;51.542;7.230;2022-12-19T03:15:20;16.90;;;9.63;;
11496;SDS011;5805;51.542;7.230;2022-12-19T03:17:48;16.53;;;9.53;;
11496;SDS011;5805;51.542;7.230;2022-12-19T03:20:19;14.15;;;9.57;;
11496;SDS011;5805;51.542;7.230;2022-12-19T03:22:49;14.43;;;9.97;;
11496;SDS011;5805;51.542;7.230;2022-12-19T03:25:15;17.40;;;10.37;;
11496;SDS011;5805;51.542;7.230;2022-12-19T03:27:42;15.50;;;9.80;;
11496;SDS011;5805;51.542;7.230;2022-12-19T03:30:11;14.95;;;9.75;;
11496;SDS011;5805;51.542;7.230;2022-12-19T03:32:38;13.73;;;9.52;;
11496;SDS011;5805;51.542;7.230;2022-12-19T03:35:09;13.70;;;9.57;;
11496;SDS011;5805;51.542;7.230;2022-12-19T03:37:38;13.27;;;9.20;;
11496;SDS011;5805;51.542;7.230;2022-12-19T03:40:07;14.20;;;9.35;;
11496;SDS011;5805;51.542;7.230;2022-12-19T03:42:35;14.40;;;9.77;;
11496;SDS011;5805;51.542;7.230;2022-12-19T03:45:03;15.95;;;10.25;;
11496;SDS011;5805;51.542;7.230;2022-12-19T03:47:32;13.35;;;9.18;;
11496;SDS011;5805;51.542;7.230;2022-12-19T03:50:00;15.13;;;10.37;;
11496;SDS011;5805;51.542;7.230;2022-12-19T03:52:28;13.50;;;9.07;;
11496;SDS011;5805;51.542;7.230;2022-12-19T03:55:00;14.73;;;10.10;;
11496;SDS011;5805;51.542;7.230;2022-12-19T03:57:33;14.70;;;9.30;;
11496;SDS011;5805;51.542;7.230;2022-12-19T04:00:04;15.30;;;10.50;;
11496;SDS011;5805;51.542;7.230;2022-12-19T04:02:38;13.73;;;9.32;;
11496;SDS011;5805;51.542;7.230;2022-12-19T04:05:08;15.93;;;9.85;;
11496;SDS011;5805;51.542;7.230;2022-12-19T04:12:30;14.38;;;9.85;;
11496;SDS011;5805;51.542;7.230;2022-12-19T04:15:00;14.90;;;9.50;;
11496;SDS011;5805;51.542;7.230;2022-12-19T04:17:29;15.30;;;10.00;;
11496;SDS011;5805;51.542;7.230;2022-12-19T04:20:01;16.25;;;10.20;;
11496;SDS011;5805;51.542;7.230;2022-12-19T04:22:30;16.00;;;10.43;;
11496;SDS011;5805;51.542;7.230;2022-12-19T04:25:01;13.18;;;9.57;;
11496;SDS011;5805;51.542;7.230;2022-12-19T04:27:29;16.02;;;10.48;;
11496;SDS011;5805;51.542;7.230;2022-12-19T04:29:56;15.50;;;9.90;;
11496;SDS011;5805;51.542;7.230;2022-12-19T04:32:25;16.23;;;9.68;;
11496;SDS011;5805;51.542;7.230;2022-12-19T04:34:52;16.02;;;10.43;;
11496;SDS011;5805;51.542;7.230;2022-12-19T04:37:18;17.15;;;10.00;;
11496;SDS011;5805;51.542;7.230;2022-12-19T04:39:44;16.00;;;10.30;;
11496;SDS011;5805;51.542;7.230;2022-12-19T04:42:11;14.55;;;9.90;;
11496;SDS011;5805;51.542;7.230;2022-12-19T04:44:36;16.48;;;9.75;;
11496;SDS011;5805;51.542;7.230;2022-12-19T04:47:02;15.73;;;9.80;;
11496;SDS011;5805;51.542;7.230;2022-12-19T04:49:28;15.63;;;9.98;;
11496;SDS011;5805;51.542;7.230;2022-12-19T04:51:54;14.23;;;9.43;;
11496;SDS011;5805;51.542;7.230;2022-12-19T04:54:19;15.10;;;10.57;;
11496;SDS011;5805;51.542;7.230;2022-12-19T04:56:45;16.63;;;10.70;;
11496;SDS011;5805;51.542;7.230;2022-12-19T04:59:12;15.57;;;10.00;;
11496;SDS011;5805;51.542;7.230;2022-12-19T05:01:38;15.68;;;9.65;;
11496;SDS011;5805;51.542;7.230;2022-12-19T05:04:03;15.95;;;10.00;;
11496;SDS011;5805;51.542;7.230;2022-12-19T05:06:29;16.48;;;10.73;;
11496;SDS011;5805;51.542;7.230;2022-12-19T05:08:55;16.67;;;10.88;;
11496;SDS011;5805;51.542;7.230;2022-12-19T05:11:21;21.88;;;10.57;;
11496;SDS011;5805;51.542;7.230;2022-12-19T05:13:46;15.68;;;10.02;;
11496;SDS011;5805;51.542;7.230;2022-12-19T05:16:13;16.00;;;10.75;;
11496;SDS011;5805;51.542;7.230;2022-12-19T05:18:40;19.30;;;11.30;;
11496;SDS011;5805;51.542;7.230;2022-12-19T05:21:06;16.67;;;10.43;;
11496;SDS011;5805;51.542;7.230;2022-12-19T05:23:32;16.17;;;10.15;;
11496;SDS011;5805;51.542;7.230;2022-12-19T05:25:58;18.17;;;10.25;;
11496;SDS011;5805;51.542;7.230;2022-12-19T05:28:24;17.80;;;10.82;;
11496;SDS011;5805;51.542;7.230;2022-12-19T05:30:50;16.90;;;10.10;;
11496;SDS011;5805;51.542;7.230;2022-12-19T05:33:17;17.15;;;10.65;;
11496;SDS011;5805;51.542;7.230;2022-12-19T05:35:42;19.38;;;10.13;;
11496;SDS011;5805;51.542;7.230;2022-12-19T05:38:08;16.73;;;10.90;;
11496;SDS011;5805;51.542;7.230;2022-12-19T05:40:34;17.17;;;10.50;;
11496;SDS011;5805;51.542;7.230;2022-12-19T05:42:59;16.92;;;10.18;;
11496;SDS011;5805;51.542;7.230;2022-12-19T05:45:25;16.52;;;10.40;;
11496;SDS011;5805;51.542;7.230;2022-12-19T05:47:51;15.77;;;10.45;;
11496;SDS011;5805;51.542;7.230;2022-12-19T05:50:18;18.98;;;10.98;;
11496;SDS011;5805;51.542;7.230;2022-12-19T05:52:43;18.00;;;10.63;;
11496;SDS011;5805;51.542;7.230;2022-12-19T05:55:09;16.40;;;10.15;;
11496;SDS011;5805;51.542;7.230;2022-12-19T05:57:35;14.43;;;10.48;;
11496;SDS011;5805;51.542;7.230;2022-12-19T06:00:01;18.33;;;10.57;;
11496;SDS011;5805;51.542;7.230;2022-12-19T06:02:30;15.57;;;9.93;;
11496;SDS011;5805;51.542;7.230;2022-12-19T06:04:56;15.90;;;10.57;;
11496;SDS011;5805;51.542;7.230;2022-12-19T06:07:24;15.05;;;10.40;;
11496;SDS011;5805;51.542;7.230;2022-12-19T06:09:49;16.63;;;10.35;;
11496;SDS011;5805;51.542;7.230;2022-12-19T06:12:15;16.58;;;10.15;;
11496;SDS011;5805;51.542;7.230;2022-12-19T06:14:41;18.77;;;11.00;;
11496;SDS011;5805;51.542;7.230;2022-12-19T06:17:06;15.32;;;10.88;;
11496;SDS011;5805;51.542;7.230;2022-12-19T06:19:32;15.93;;;10.25;;
11496;SDS011;5805;51.542;7.230;2022-12-19T06:21:58;14.63;;;9.38;;
11496;SDS011;5805;51.542;7.230;2022-12-19T06:24:25;15.18;;;10.05;;
11496;SDS011;5805;51.542;7.230;2022-12-19T06:26:50;15.65;;;10.48;;
11496;SDS011;5805;51.542;7.230;2022-12-19T06:29:16;16.40;;;9.52;;
11496;SDS011;5805;51.542;7.230;2022-12-19T06:31:42;15.02;;;10.20;;
11496;SDS011;5805;51.542;7.230;2022-12-19T06:34:08;16.45;;;10.25;;
11496;SDS011;5805;51.542;7.230;2022-12-19T06:36:34;15.15;;;10.07;;
11496;SDS011;5805;51.542;7.230;2022-12-19T06:39:00;15.77;;;10.65;;
11496;SDS011;5805;51.542;7.230;2022-12-19T06:41:27;15.82;;;10.02;;
11496;SDS011;5805;51.542;7.230;2022-12-19T06:43:55;13.75;;;9.18;;
11496;SDS011;5805;51.542;7.230;2022-12-19T06:46:22;14.65;;;9.68;;
11496;SDS011;5805;51.542;7.230;2022-12-19T06:48:47;14.73;;;9.85;;
11496;SDS011;5805;51.542;7.230;2022-12-19T06:51:13;12.98;;;9.07;;
11496;SDS011;5805;51.542;7.230;2022-12-19T06:53:39;15.60;;;10.30;;
11496;SDS011;5805;51.542;7.230;2022-12-19T06:56:05;13.15;;;9.57;;
11496;SDS011;5805;51.542;7.230;2022-12-19T06:58:33;16.58;;;10.48;;
11496;SDS011;5805;51.542;7.230;2022-12-19T07:00:58;15.10;;;9.98;;
11496;SDS011;5805;51.542;7.230;2022-12-19T07:03:25;14.20;;;9.43;;
11496;SDS011;5805;51.542;7.230;2022-12-19T07:05:54;15.80;;;12.60;;
11496;SDS011;5805;51.542;7.230;2022-12-19T07:08:20;13.98;;;9.88;;
11496;SDS011;5805;51.542;7.230;2022-12-19T07:10:46;12.18;;;8.40;;
11496;SDS011;5805;51.542;7.230;2022-12-19T07:13:11;14.63;;;9.35;;
11496;SDS011;5805;51.542;7.230;2022-12-19T07:15:39;14.52;;;9.57;;
11496;SDS011;5805;51.542;7.230;2022-12-19T07:18:05;13.55;;;8.98;;
11496;SDS011;5805;51.542;7.230;2022-12-19T07:20:33;11.95;;;8.55;;
11496;SDS011;5805;51.542;7.230;2022-12-19T07:23:00;15.27;;;8.45;;
11496;SDS011;5805;51.542;7.230;2022-12-19T07:25:28;13.02;;;8.27;;
11496;SDS011;5805;51.542;7.230;2022-12-19T07:27:53;12.23;;;7.80;;
11496;SDS011;5805;51.542;7.230;2022-12-19T07:30:19;11.90;;;8.00;;
11496;SDS011;5805;51.542;7.230;2022-12-19T07:32:46;11.50;;;7.50;;
11496;SDS011;5805;51.542;7.230;2022-12-19T07:35:12;10.35;;;7.63;;
11496;SDS011;5805;51.542;7.230;2022-12-19T07:37:38;11.05;;;7.10;;
11496;SDS011;5805;51.542;7.230;2022-12-19T07:40:04;11.40;;;7.90;;
11496;SDS011;5805;51.542;7.230;2022-12-19T07:42:30;9.90;;;7.50;;
11496;SDS011;5805;51.542;7.230;2022-12-19T07:44:56;10.65;;;7.47;;
11496;SDS011;5805;51.542;7.230;2022-12-19T07:47:21;11.20;;;7.85;;
11496;SDS011;5805;51.542;7.230;2022-12-19T07:49:48;10.75;;;7.82;;
11496;SDS011;5805;51.542;7.230;2022-12-19T07:52:14;11.50;;;7.50;;
11496;SDS011;5805;51.542;7.230;2022-12-19T07:54:40;15.73;;;7.35;;
11496;SDS011;5805;51.542;7.230;2022-12-19T07:57:05;10.52;;;7.75;;
11496;SDS011;5805;51.542;7.230;2022-12-19T07:59:31;11.52;;;7.63;;
11496;SDS011;5805;51.542;7.230;2022-12-19T08:01:57;10.98;;;8.15;;
11496;SDS011;5805;51.542;7.230;2022-12-19T08:04:22;10.73;;;7.45;;
11496;SDS011;5805;51.542;7.230;2022-12-19T08:06:49;11.40;;;7.63;;
11496;SDS011;5805;51.542;7.230;2022-12-19T08:09:15;13.82;;;8.48;;
11496;SDS011;5805;51.542;7.230;2022-12-19T08:11:41;13.43;;;7.93;;
11496;SDS011;5805;51.542;7.230;2022-12-19T08:14:06;11.15;;;7.38;;
11496;SDS011;5805;51.542;7.230;2022-12-19T08:16:32;10.35;;;6.97;;
11496;SDS011;5805;51.542;7.230;2022-12-19T08:18:58;11.23;;;7.45;;
11496;SDS011;5805;51.542;7.230;2022-12-19T08:21:23;11.35;;;7.47;;
11496;SDS011;5805;51.542;7.230;2022-12-19T08:23:50;11.23;;;7.95;;
11496;SDS011;5805;51.542;7.230;2022-12-19T08:26:17;10.57;;;7.43;;
11496;SDS011;5805;51.542;7.230;2022-12-19T08:28:43;11.75;;;9.30;;
11496;SDS011;5805;51.542;7.230;2022-12-19T08:31:11;13.10;;;7.88;;
11496;SDS011;5805;51.542;7.230;2022-12-19T08:33:37;10.10;;;7.57;;
11496;SDS011;5805;51.542;7.230;2022-12-19T08:36:04;10.98;;;7.22;;
11496;SDS011;5805;51.542;7.230;2022-12-19T08:38:30;11.70;;;7.60;;
11496;SDS011;5805;51.542;7.230;2022-12-19T08:40:57;9.52;;;6.75;;
11496;SDS011;5805;51.542;7.230;2022-12-19T08:43:23;11.85;;;8.20;;
11496;SDS011;5805;51.542;7.230;2022-12-19T08:45:50;9.80;;;7.43;;
11496;SDS011;5805;51.542;7.230;2022-12-19T08:48:15;11.13;;;7.00;;
11496;SDS011;5805;51.542;7.230;2022-12-19T08:50:47;12.38;;;7.65;;
11496;SDS011;5805;51.542;7.230;2022-12-19T08:53:14;10.52;;;9.10;;
11496;SDS011;5805;51.542;7.230;2022-12-19T08:55:39;10.10;;;7.63;;
11496;SDS011;5805;51.542;7.230;2022-12-19T08:58:06;10.55;;;7.35;;
11496;SDS011;5805;51.542;7.230;2022-12-19T09:00:32;9.90;;;7.63;;
11496;SDS011;5805;51.542;7.230;2022-12-19T09:02:58;9.05;;;7.20;;
11496;SDS011;5805;51.542;7.230;2022-12-19T09:05:23;10.52;;;7.85;;
11496;SDS011;5805;51.542;7.230;2022-12-19T09:07:49;10.55;;;7.47;;
11496;SDS011;5805;51.542;7.230;2022-12-19T09:10:15;10.43;;;6.85;;
11496;SDS011;5805;51.542;7.230;2022-12-19T09:12:40;10.52;;;7.57;;
11496;SDS011;5805;51.542;7.230;2022-12-19T09:15:08;12.02;;;7.22;;
11496;SDS011;5805;51.542;7.230;2022-12-19T09:17:34;10.40;;;6.90;;
11496;SDS011;5805;51.542;7.230;2022-12-19T09:19:59;12.75;;;6.70;;
11496;SDS011;5805;51.542;7.230;2022-12-19T09:22:25;7.95;;;6.82;;
11496;SDS011;5805;51.542;7.230;2022-12-19T09:24:51;10.75;;;7.13;;
11496;SDS011;5805;51.542;7.230;2022-12-19T09:27:16;10.13;;;6.95;;
11496;SDS011;5805;51.542;7.230;2022-12-19T09:29:42;13.25;;;6.85;;
11496;SDS011;5805;51.542;7.230;2022-12-19T09:32:09;8.32;;;6.57;;
11496;SDS011;5805;51.542;7.230;2022-12-19T09:34:35;12.40;;;7.32;;
11496;SDS011;5805;51.542;7.230;2022-12-19T09:37:00;9.23;;;6.97;;
11496;SDS011;5805;51.542;7.230;2022-12-19T09:39:26;11.65;;;6.70;;
11496;SDS011;5805;51.542;7.230;2022-12-19T09:41:55;8.80;;;6.63;;
11496;SDS011;5805;51.542;7.230;2022-12-19T09:44:39;9.15;;;6.75;;
11496;SDS011;5805;51.542;7.230;2022-12-19T09:47:16;10.52;;;7.00;;
11496;SDS011;5805;51.542;7.230;2022-12-19T09:49:45;9.15;;;6.82;;
11496;SDS011;5805;51.542;7.230;2022-12-19T09:52:12;9.20;;;6.57;;
11496;SDS011;5805;51.542;7.230;2022-12-19T09:54:41;9.77;;;6.28;;
11496;SDS011;5805;51.542;7.230;2022-12-19T09:57:11;9.90;;;7.85;;
11496;SDS011;5805;51.542;7.230;2022-12-19T09:59:40;11.23;;;7.47;;
11496;SDS011;5805;51.542;7.230;2022-12-19T10:05:05;10.63;;;6.63;;
11496;SDS011;5805;51.542;7.230;2022-12-19T10:07:38;8.63;;;6.20;;
11496;SDS011;5805;51.542;7.230;2022-12-19T10:10:04;9.52;;;6.47;;
11496;SDS011;5805;51.542;7.230;2022-12-19T10:12:37;9.73;;;6.07;;
11496;SDS011;5805;51.542;7.230;2022-12-19T10:15:17;8.93;;;6.13;;
11496;SDS011;5805;51.542;7.230;2022-12-19T10:18:00;7.95;;;5.70;;
11496;SDS011;5805;51.542;7.230;2022-12-19T10:20:36;7.28;;;5.30;;
11496;SDS011;5805;51.542;7.230;2022-12-19T10:23:08;10.15;;;6.75;;
11496;SDS011;5805;51.542;7.230;2022-12-19T10:25:48;8.57;;;5.88;;
11496;SDS011;5805;51.542;7.230;2022-12-19T10:31:15;6.97;;;4.88;;
11496;SDS011;5805;51.542;7.230;2022-12-19T10:33:46;6.88;;;5.25;;
11496;SDS011;5805;51.542;7.230;2022-12-19T10:36:17;6.97;;;5.35;;
11496;SDS011;5805;51.542;7.230;2022-12-19T10:38:46;6.88;;;4.97;;
11496;SDS011;5805;51.542;7.230;2022-12-19T10:41:19;7.72;;;4.93;;
11496;SDS011;5805;51.542;7.230;2022-12-19T10:43:51;6.55;;;4.93;;
11496;SDS011;5805;51.542;7.230;2022-12-19T10:46:31;8.05;;;6.18;;
11496;SDS011;5805;51.542;7.230;2022-12-19T10:49:08;7.47;;;5.22;;
11496;SDS011;5805;51.542;7.230;2022-12-19T10:51:36;6.18;;;4.95;;
11496;SDS011;5805;51.542;7.230;2022-12-19T10:54:01;6.20;;;4.70;;
11496;SDS011;5805;51.542;7.230;2022-12-19T10:56:27;7.78;;;5.07;;
11496;SDS011;5805;51.542;7.230;2022-12-19T10:58:55;7.18;;;5.00;;
11496;SDS011;5805;51.542;7.230;2022-12-19T11:01:23;6.07;;;4.63;;
11496;SDS011;5805;51.542;7.230;2022-12-19T11:03:50;6.90;;;5.05;;
11496;SDS011;5805;51.542;7.230;2022-12-19T11:06:44;7.65;;;5.38;;
11496;SDS011;5805;51.542;7.230;2022-12-19T11:09:16;6.35;;;4.95;;
11496;SDS011;5805;51.542;7.230;2022-12-19T11:11:44;7.63;;;5.57;;
11496;SDS011;5805;51.542;7.230;2022-12-19T11:14:17;10.05;;;5.72;;
11496;SDS011;5805;51.542;7.230;2022-12-19T11:16:45;7.93;;;5.32;;
11496;SDS011;5805;51.542;7.230;2022-12-19T11:19:18;8.95;;;5.38;;
11496;SDS011;5805;51.542;7.230;2022-12-19T11:21:45;7.28;;;5.40;;
11496;SDS011;5805;51.542;7.230;2022-12-19T11:24:12;6.72;;;5.30;;
11496;SDS011;5805;51.542;7.230;2022-12-19T11:26:46;7.03;;;5.25;;
11496;SDS011;5805;51.542;7.230;2022-12-19T11:29:17;6.60;;;4.95;;
11496;SDS011;5805;51.542;7.230;2022-12-19T11:31:45;6.30;;;5.13;;
11496;SDS011;5805;51.542;7.230;2022-12-19T11:34:13;7.38;;;4.68;;
11496;SDS011;5805;51.542;7.230;2022-12-19T11:36:42;8.48;;;5.28;;
11496;SDS011;5805;51.542;7.230;2022-12-19T11:39:14;6.85;;;4.80;;
11496;SDS011;5805;51.542;7.230;2022-12-19T11:41:47;7.28;;;5.05;;
11496;SDS011;5805;51.542;7.230;2022-12-19T11:44:21;14.73;;;5.82;;
11496;SDS011;5805;51.542;7.230;2022-12-19T11:46:52;8.20;;;5.60;;
11496;SDS011;5805;51.542;7.230;2022-12-19T11:49:28;7.82;;;5.68;;
11496;SDS011;5805;51.542;7.230;2022-12-19T11:51:59;13.20;;;6.03;;
11496;SDS011;5805;51.542;7.230;2022-12-19T11:54:31;8.65;;;5.35;;
11496;SDS011;5805;51.542;7.230;2022-12-19T11:57:00;8.85;;;5.22;;
11496;SDS011;5805;51.542;7.230;2022-12-19T11:59:26;6.97;;;4.97;;
11496;SDS011;5805;51.542;7.230;2022-12-19T12:02:11;10.52;;;5.30;;
11496;SDS011;5805;51.542;7.230;2022-12-19T12:07:47;6.60;;;4.72;;
11496;SDS011;5805;51.542;7.230;2022-12-19T12:10:19;10.38;;;5.40;;
11496;SDS011;5805;51.542;7.230;2022-12-19T12:12:50;8.35;;;5.45;;
11496;SDS011;5805;51.542;7.230;2022-12-19T12:15:29;5.93;;;4.70;;
11496;SDS011;5805;51.542;7.230;2022-12-19T12:18:08;7.32;;;4.82;;
11496;SDS011;5805;51.542;7.230;2022-12-19T12:20:44;6.15;;;4.72;;
11496;SDS011;5805;51.542;7.230;2022-12-19T12:23:20;8.07;;;6.00;;
11496;SDS011;5805;51.542;7.230;2022-12-19T12:28:47;7.10;;;5.25;;
11496;SDS011;5805;51.542;7.230;2022-12-19T12:31:27;6.75;;;4.43;;
11496;SDS011;5805;51.542;7.230;2022-12-19T12:34:05;6.53;;;4.82;;
11496;SDS011;5805;51.542;7.230;2022-12-19T12:36:49;5.68;;;3.85;;
11496;SDS011;5805;51.542;7.230;2022-12-19T12:39:29;7.22;;;3.92;;
11496;SDS011;5805;51.542;7.230;2022-12-19T12:42:06;6.13;;;4.35;;
11496;SDS011;5805;51.542;7.230;2022-12-19T12:44:41;7.88;;;4.43;;
11496;SDS011;5805;51.542;7.230;2022-12-19T12:47:11;6.40;;;5.13;;
11496;SDS011;5805;51.542;7.230;2022-12-19T12:49:42;7.38;;;5.28;;
11496;SDS011;5805;51.542;7.230;2022-12-19T12:52:11;9.27;;;5.50;;
11496;SDS011;5805;51.542;7.230;2022-12-19T12:54:41;7.68;;;5.35;;
11496;SDS011;5805;51.542;7.230;2022-12-19T12:57:16;7.22;;;5.68;;
11496;SDS011;5805;51.542;7.230;2022-12-19T12:59:44;7.75;;;5.82;;
11496;SDS011;5805;51.542;7.230;2022-12-19T13:02:12;7.07;;;5.18;;
11496;SDS011;5805;51.542;7.230;2022-12-19T13:04:42;5.72;;;4.80;;
11496;SDS011;5805;51.542;7.230;2022-12-19T13:07:24;7.50;;;5.32;;
11496;SDS011;5805;51.542;7.230;2022-12-19T13:10:03;7.50;;;5.35;;
11496;SDS011;5805;51.542;7.230;2022-12-19T13:12:54;7.60;;;5.47;;
11496;SDS011;5805;51.542;7.230;2022-12-19T13:15:37;7.32;;;5.20;;
11496;SDS011;5805;51.542;7.230;2022-12-19T13:20:55;7.00;;;5.25;;
11496;SDS011;5805;51.542;7.230;2022-12-19T13:23:23;8.50;;;4.97;;
11496;SDS011;5805;51.542;7.230;2022-12-19T13:26:00;7.60;;;4.68;;
11496;SDS011;5805;51.542;7.230;2022-12-19T13:28:36;5.93;;;4.53;;
11496;SDS011;5805;51.542;7.230;2022-12-19T13:31:19;7.72;;;4.80;;
11496;SDS011;5805;51.542;7.230;2022-12-19T13:33:46;7.60;;;4.95;;
11496;SDS011;5805;51.542;7.230;2022-12-19T13:36:46;7.22;;;5.00;;
11496;SDS011;5805;51.542;7.230;2022-12-19T13:39:28;6.10;;;4.43;;
11496;SDS011;5805;51.542;7.230;2022-12-19T13:42:10;6.18;;;4.60;;
11496;SDS011;5805;51.542;7.230;2022-12-19T13:44:37;7.07;;;5.07;;
11496;SDS011;5805;51.542;7.230;2022-12-19T13:47:05;8.15;;;4.45;;
11496;SDS011;5805;51.542;7.230;2022-12-19T13:49:31;6.53;;;5.00;;
11496;SDS011;5805;51.542;7.230;2022-12-19T13:51:58;6.72;;;4.28;;
11496;SDS011;5805;51.542;7.230;2022-12-19T13:54:24;6.35;;;4.50;;
11496;SDS011;5805;51.542;7.230;2022-12-19T13:56:51;7.70;;;4.88;;
11496;SDS011;5805;51.542;7.230;2022-12-19T13:59:19;7.50;;;4.72;;
11496;SDS011;5805;51.542;7.230;2022-12-19T14:01:47;7.15;;;4.70;;
11496;SDS011;5805;51.542;7.230;2022-12-19T14:04:23;4.60;;;4.20;;
11496;SDS011;5805;51.542;7.230;2022-12-19T14:06:51;5.50;;;4.20;;
11496;SDS011;5805;51.542;7.230;2022-12-19T14:09:22;6.85;;;4.03;;
11496;SDS011;5805;51.542;7.230;2022-12-19T14:11:53;5.55;;;4.47;;
11496;SDS011;5805;51.542;7.230;2022-12-19T14:14:22;5.47;;;4.05;;
11496;SDS011;5805;51.542;7.230;2022-12-19T14:16:48;5.53;;;4.25;;
11496;SDS011;5805;51.542;7.230;2022-12-19T14:19:17;5.07;;;4.10;;
11496;SDS011;5805;51.542;7.230;2022-12-19T14:21:44;7.03;;;4.22;;
11496;SDS011;5805;51.542;7.230;2022-12-19T14:24:12;4.78;;;3.80;;
11496;SDS011;5805;51.542;7.230;2022-12-19T14:26:40;5.95;;;4.07;;
11496;SDS011;5805;51.542;7.230;2022-12-19T14:29:08;5.72;;;3.97;;
11496;SDS011;5805;51.542;7.230;2022-12-19T14:31:39;5.00;;;4.10;;
11496;SDS011;5805;51.542;7.230;2022-12-19T14:34:07;8.18;;;3.85;;
11496;SDS011;5805;51.542;7.230;2022-12-19T14:36:38;6.35;;;4.47;;
11496;SDS011;5805;51.542;7.230;2022-12-19T14:39:13;5.93;;;4.00;;
11496;SDS011;5805;51.542;7.230;2022-12-19T14:41:40;6.50;;;4.43;;
11496;SDS011;5805;51.542;7.230;2022-12-19T14:44:08;6.80;;;4.13;;
11496;SDS011;5805;51.542;7.230;2022-12-19T14:46:34;6.57;;;4.75;;
11496;SDS011;5805;51.542;7.230;2022-12-19T14:49:01;5.53;;;4.10;;
11496;SDS011;5805;51.542;7.230;2022-12-19T14:51:30;6.97;;;4.38;;
11496;SDS011;5805;51.542;7.230;2022-12-19T14:54:04;5.43;;;4.05;;
11496;SDS011;5805;51.542;7.230;2022-12-19T14:56:31;5.85;;;4.40;;
11496;SDS011;5805;51.542;7.230;2022-12-19T14:59:12;5.03;;;4.15;;
11496;SDS011;5805;51.542;7.230;2022-12-19T15:01:49;6.43;;;4.82;;
11496;SDS011;5805;51.542;7.230;2022-12-19T15:04:18;6.50;;;4.13;;
11496;SDS011;5805;51.542;7.230;2022-12-19T15:06:48;6.78;;;3.72;;
11496;SDS011;5805;51.542;7.230;2022-12-19T15:09:16;6.72;;;4.20;;
11496;SDS011;5805;51.542;7.230;2022-12-19T15:11:44;6.93;;;4.38;;
11496;SDS011;5805;51.542;7.230;2022-12-19T15:14:11;4.78;;;4.00;;
11496;SDS011;5805;51.542;7.230;2022-12-19T15:16:37;5.68;;;3.90;;
11496;SDS011;5805;51.542;7.230;2022-12-19T15:19:04;4.75;;;3.80;;
11496;SDS011;5805;51.542;7.230;2022-12-19T15:21:37;5.88;;;4.43;;
11496;SDS011;5805;51.542;7.230;2022-12-19T15:24:02;4.93;;;3.65;;